sensor_id;sensor_type;location;lat;lon;timestamp;P1;durP1;ratioP1;P2;durP2;ratioP2
71806;SDS011;59655;42.590;23.364;2023-11-21T00:02:11;9.18;;;2.83;;
71806;SDS011;59655;42.590;23.364;2023-11-21T00:04:36;9.13;;;3.45;;
71806;SDS011;59655;42.590;23.364;2023-11-21T00:07:02;9.73;;;3.15;;
71806;SDS011;59655;42.590;23.364;2023-11-21T00:09:28;8.10;;;2.85;;
71806;SDS011;59655;42.590;23.364;2023-11-21T00:11:53;7.72;;;3.10;;
71806;SDS011;59655;42.590;23.364;2023-11-21T00:14:19;9.52;;;3.20;;
71806;SDS011;59655;42.590;23.364;2023-11-21T00:16:44;11.73;;;3.97;;
71806;SDS011;59655;42.590;23.364;2023-11-21T00:19:10;11.68;;;4.82;;
71806;SDS011;59655;42.590;23.364;2023-11-21T00:21:36;10.25;;;4.20;;
71806;SDS011;59655;42.590;23.364;2023-11-21T00:24:02;15.02;;;4.93;;
71806;SDS011;59655;42.590;23.364;2023-11-21T00:26:28;15.00;;;5.25;;
71806;SDS011;59655;42.590;23.364;2023-11-21T00:28:53;12.82;;;4.40;;
71806;SDS011;59655;42.590;23.364;2023-11-21T00:31:19;11.77;;;3.20;;
71806;SDS011;59655;42.590;23.364;2023-11-21T00:33:44;9.05;;;2.63;;
71806;SDS011;59655;42.590;23.364;2023-11-21T00:36:09;11.70;;;3.42;;
71806;SDS011;59655;42.590;23.364;2023-11-21T00:38:35;21.00;;;5.10;;
71806;SDS011;59655;42.590;23.364;2023-11-21T00:41:01;25.27;;;7.95;;
71806;SDS011;59655;42.590;23.364;2023-11-21T00:43:27;22.50;;;6.78;;
71806;SDS011;59655;42.590;23.364;2023-11-21T00:45:53;16.08;;;4.38;;
71806;SDS011;59655;42.590;23.364;2023-11-21T00:48:18;15.88;;;4.53;;
71806;SDS011;59655;42.590;23.364;2023-11-21T00:50:44;10.77;;;3.10;;
71806;SDS011;59655;42.590;23.364;2023-11-21T00:53:09;11.05;;;3.08;;
71806;SDS011;59655;42.590;23.364;2023-11-21T00:55:36;11.88;;;4.88;;
71806;SDS011;59655;42.590;23.364;2023-11-21T00:58:01;11.25;;;3.97;;
71806;SDS011;59655;42.590;23.364;2023-11-21T01:00:29;7.70;;;2.60;;
71806;SDS011;59655;42.590;23.364;2023-11-21T01:02:54;5.75;;;1.98;;
71806;SDS011;59655;42.590;23.364;2023-11-21T01:05:20;4.38;;;1.63;;
71806;SDS011;59655;42.590;23.364;2023-11-21T01:07:45;5.50;;;1.45;;
71806;SDS011;59655;42.590;23.364;2023-11-21T01:10:11;13.82;;;4.65;;
71806;SDS011;59655;42.590;23.364;2023-11-21T01:12:37;20.83;;;7.90;;
71806;SDS011;59655;42.590;23.364;2023-11-21T01:15:04;16.95;;;5.10;;
71806;SDS011;59655;42.590;23.364;2023-11-21T01:17:32;13.73;;;5.90;;
71806;SDS011;59655;42.590;23.364;2023-11-21T01:19:59;14.27;;;5.47;;
71806;SDS011;59655;42.590;23.364;2023-11-21T01:22:25;13.75;;;5.93;;
71806;SDS011;59655;42.590;23.364;2023-11-21T01:24:51;9.20;;;2.92;;
71806;SDS011;59655;42.590;23.364;2023-11-21T01:27:18;10.23;;;4.32;;
71806;SDS011;59655;42.590;23.364;2023-11-21T01:29:43;10.23;;;3.80;;
71806;SDS011;59655;42.590;23.364;2023-11-21T01:32:08;9.63;;;4.25;;
71806;SDS011;59655;42.590;23.364;2023-11-21T01:34:35;9.15;;;3.33;;
71806;SDS011;59655;42.590;23.364;2023-11-21T01:37:00;6.72;;;2.92;;
71806;SDS011;59655;42.590;23.364;2023-11-21T01:39:26;7.88;;;3.15;;
71806;SDS011;59655;42.590;23.364;2023-11-21T01:41:51;14.00;;;4.25;;
71806;SDS011;59655;42.590;23.364;2023-11-21T01:44:17;9.10;;;3.13;;
71806;SDS011;59655;42.590;23.364;2023-11-21T01:46:44;10.57;;;4.28;;
71806;SDS011;59655;42.590;23.364;2023-11-21T01:49:11;11.65;;;4.80;;
71806;SDS011;59655;42.590;23.364;2023-11-21T01:51:38;27.30;;;18.85;;
71806;SDS011;59655;42.590;23.364;2023-11-21T01:54:05;15.90;;;10.40;;
71806;SDS011;59655;42.590;23.364;2023-11-21T01:56:31;7.90;;;4.20;;
71806;SDS011;59655;42.590;23.364;2023-11-21T01:58:57;6.25;;;3.25;;
71806;SDS011;59655;42.590;23.364;2023-11-21T02:01:23;4.15;;;1.90;;
71806;SDS011;59655;42.590;23.364;2023-11-21T02:03:48;3.75;;;1.38;;
71806;SDS011;59655;42.590;23.364;2023-11-21T02:06:14;4.50;;;2.10;;
71806;SDS011;59655;42.590;23.364;2023-11-21T02:08:39;7.20;;;2.05;;
71806;SDS011;59655;42.590;23.364;2023-11-21T02:11:07;6.72;;;1.73;;
71806;SDS011;59655;42.590;23.364;2023-11-21T02:13:34;5.05;;;1.63;;
71806;SDS011;59655;42.590;23.364;2023-11-21T02:16:00;11.95;;;2.00;;
71806;SDS011;59655;42.590;23.364;2023-11-21T02:18:25;9.25;;;2.90;;
71806;SDS011;59655;42.590;23.364;2023-11-21T02:20:50;7.22;;;2.70;;
71806;SDS011;59655;42.590;23.364;2023-11-21T02:23:16;7.28;;;2.10;;
71806;SDS011;59655;42.590;23.364;2023-11-21T02:25:43;8.20;;;2.28;;
71806;SDS011;59655;42.590;23.364;2023-11-21T02:28:08;6.63;;;2.10;;
71806;SDS011;59655;42.590;23.364;2023-11-21T02:30:34;6.82;;;2.53;;
71806;SDS011;59655;42.590;23.364;2023-11-21T02:33:00;12.93;;;3.85;;
71806;SDS011;59655;42.590;23.364;2023-11-21T02:35:26;8.68;;;3.30;;
71806;SDS011;59655;42.590;23.364;2023-11-21T02:37:52;9.20;;;2.40;;
71806;SDS011;59655;42.590;23.364;2023-11-21T02:40:18;9.15;;;2.42;;
71806;SDS011;59655;42.590;23.364;2023-11-21T02:42:45;10.30;;;2.50;;
71806;SDS011;59655;42.590;23.364;2023-11-21T02:45:14;7.47;;;2.65;;
71806;SDS011;59655;42.590;23.364;2023-11-21T02:47:44;5.05;;;1.60;;
71806;SDS011;59655;42.590;23.364;2023-11-21T02:50:10;3.70;;;1.52;;
71806;SDS011;59655;42.590;23.364;2023-11-21T02:52:35;5.10;;;1.85;;
71806;SDS011;59655;42.590;23.364;2023-11-21T02:55:01;5.82;;;1.38;;
71806;SDS011;59655;42.590;23.364;2023-11-21T02:57:27;3.28;;;1.50;;
71806;SDS011;59655;42.590;23.364;2023-11-21T02:59:53;3.03;;;1.23;;
71806;SDS011;59655;42.590;23.364;2023-11-21T03:02:19;3.80;;;1.33;;
71806;SDS011;59655;42.590;23.364;2023-11-21T03:04:45;5.95;;;2.03;;
71806;SDS011;59655;42.590;23.364;2023-11-21T03:07:10;5.03;;;1.60;;
71806;SDS011;59655;42.590;23.364;2023-11-21T03:09:36;3.42;;;1.73;;
71806;SDS011;59655;42.590;23.364;2023-11-21T03:12:01;3.40;;;1.30;;
71806;SDS011;59655;42.590;23.364;2023-11-21T03:14:27;5.32;;;2.13;;
71806;SDS011;59655;42.590;23.364;2023-11-21T03:16:52;5.32;;;2.20;;
71806;SDS011;59655;42.590;23.364;2023-11-21T03:19:17;7.72;;;2.35;;
71806;SDS011;59655;42.590;23.364;2023-11-21T03:21:43;3.83;;;1.83;;
71806;SDS011;59655;42.590;23.364;2023-11-21T03:24:08;5.13;;;1.88;;
71806;SDS011;59655;42.590;23.364;2023-11-21T03:26:34;2.53;;;1.15;;
71806;SDS011;59655;42.590;23.364;2023-11-21T03:28:59;5.22;;;1.92;;
71806;SDS011;59655;42.590;23.364;2023-11-21T03:31:25;19.42;;;12.52;;
71806;SDS011;59655;42.590;23.364;2023-11-21T03:33:51;11.48;;;6.57;;
71806;SDS011;59655;42.590;23.364;2023-11-21T03:36:19;11.77;;;6.90;;
71806;SDS011;59655;42.590;23.364;2023-11-21T03:38:44;5.97;;;3.75;;
71806;SDS011;59655;42.590;23.364;2023-11-21T03:41:10;4.05;;;1.85;;
71806;SDS011;59655;42.590;23.364;2023-11-21T03:43:36;5.28;;;2.03;;
71806;SDS011;59655;42.590;23.364;2023-11-21T03:46:02;10.50;;;4.03;;
71806;SDS011;59655;42.590;23.364;2023-11-21T03:48:28;12.07;;;4.47;;
71806;SDS011;59655;42.590;23.364;2023-11-21T03:50:53;16.40;;;4.53;;
71806;SDS011;59655;42.590;23.364;2023-11-21T03:53:18;9.45;;;3.47;;
71806;SDS011;59655;42.590;23.364;2023-11-21T03:55:44;8.07;;;2.78;;
71806;SDS011;59655;42.590;23.364;2023-11-21T03:58:09;18.08;;;3.88;;
71806;SDS011;59655;42.590;23.364;2023-11-21T04:00:34;7.95;;;2.40;;
71806;SDS011;59655;42.590;23.364;2023-11-21T04:03:00;5.78;;;1.90;;
71806;SDS011;59655;42.590;23.364;2023-11-21T04:05:25;6.93;;;2.42;;
71806;SDS011;59655;42.590;23.364;2023-11-21T04:07:51;9.07;;;2.25;;
71806;SDS011;59655;42.590;23.364;2023-11-21T04:10:17;5.50;;;2.13;;
71806;SDS011;59655;42.590;23.364;2023-11-21T04:12:43;11.38;;;2.60;;
71806;SDS011;59655;42.590;23.364;2023-11-21T04:15:09;7.03;;;2.08;;
71806;SDS011;59655;42.590;23.364;2023-11-21T04:17:35;8.18;;;2.38;;
71806;SDS011;59655;42.590;23.364;2023-11-21T04:20:02;8.45;;;2.53;;
71806;SDS011;59655;42.590;23.364;2023-11-21T04:22:33;7.95;;;2.92;;
71806;SDS011;59655;42.590;23.364;2023-11-21T04:24:58;4.63;;;1.98;;
71806;SDS011;59655;42.590;23.364;2023-11-21T04:27:24;4.47;;;2.13;;
71806;SDS011;59655;42.590;23.364;2023-11-21T04:29:49;6.93;;;2.10;;
71806;SDS011;59655;42.590;23.364;2023-11-21T04:32:14;7.07;;;2.67;;
71806;SDS011;59655;42.590;23.364;2023-11-21T04:34:40;7.47;;;2.80;;
71806;SDS011;59655;42.590;23.364;2023-11-21T04:37:05;12.50;;;5.05;;
71806;SDS011;59655;42.590;23.364;2023-11-21T04:39:31;5.07;;;2.35;;
71806;SDS011;59655;42.590;23.364;2023-11-21T04:41:57;9.35;;;6.38;;
71806;SDS011;59655;42.590;23.364;2023-11-21T04:44:22;12.15;;;7.07;;
71806;SDS011;59655;42.590;23.364;2023-11-21T04:46:47;9.60;;;4.00;;
71806;SDS011;59655;42.590;23.364;2023-11-21T04:49:13;10.35;;;3.53;;
71806;SDS011;59655;42.590;23.364;2023-11-21T04:51:39;9.68;;;3.80;;
71806;SDS011;59655;42.590;23.364;2023-11-21T04:54:05;6.78;;;2.65;;
71806;SDS011;59655;42.590;23.364;2023-11-21T04:56:30;5.13;;;2.58;;
71806;SDS011;59655;42.590;23.364;2023-11-21T04:58:56;14.15;;;4.90;;
71806;SDS011;59655;42.590;23.364;2023-11-21T05:01:21;17.52;;;6.28;;
71806;SDS011;59655;42.590;23.364;2023-11-21T05:03:47;13.95;;;5.45;;
71806;SDS011;59655;42.590;23.364;2023-11-21T05:06:14;14.70;;;7.57;;
71806;SDS011;59655;42.590;23.364;2023-11-21T05:08:39;15.88;;;6.38;;
71806;SDS011;59655;42.590;23.364;2023-11-21T05:11:05;19.00;;;6.57;;
71806;SDS011;59655;42.590;23.364;2023-11-21T05:13:33;18.73;;;7.80;;
71806;SDS011;59655;42.590;23.364;2023-11-21T05:15:59;13.60;;;5.20;;
71806;SDS011;59655;42.590;23.364;2023-11-21T05:18:24;10.50;;;4.88;;
71806;SDS011;59655;42.590;23.364;2023-11-21T05:20:54;13.65;;;6.25;;
71806;SDS011;59655;42.590;23.364;2023-11-21T05:23:20;7.30;;;4.40;;
71806;SDS011;59655;42.590;23.364;2023-11-21T05:25:46;13.30;;;6.40;;
71806;SDS011;59655;42.590;23.364;2023-11-21T05:28:11;7.60;;;4.93;;
71806;SDS011;59655;42.590;23.364;2023-11-21T05:30:37;10.65;;;5.25;;
71806;SDS011;59655;42.590;23.364;2023-11-21T05:33:04;15.25;;;7.00;;
71806;SDS011;59655;42.590;23.364;2023-11-21T05:35:29;17.42;;;8.60;;
71806;SDS011;59655;42.590;23.364;2023-11-21T05:37:56;16.95;;;7.85;;
71806;SDS011;59655;42.590;23.364;2023-11-21T05:40:21;12.23;;;6.32;;
71806;SDS011;59655;42.590;23.364;2023-11-21T05:42:47;19.67;;;7.47;;
71806;SDS011;59655;42.590;23.364;2023-11-21T05:45:13;14.88;;;8.60;;
71806;SDS011;59655;42.590;23.364;2023-11-21T05:47:42;12.00;;;6.00;;
71806;SDS011;59655;42.590;23.364;2023-11-21T05:50:09;9.20;;;5.75;;
71806;SDS011;59655;42.590;23.364;2023-11-21T05:52:36;17.85;;;10.65;;
71806;SDS011;59655;42.590;23.364;2023-11-21T05:55:02;16.50;;;10.40;;
71806;SDS011;59655;42.590;23.364;2023-11-21T05:57:32;12.95;;;7.05;;
71806;SDS011;59655;42.590;23.364;2023-11-21T05:59:57;12.98;;;6.47;;
71806;SDS011;59655;42.590;23.364;2023-11-21T06:02:23;13.23;;;7.47;;
71806;SDS011;59655;42.590;23.364;2023-11-21T06:04:48;21.25;;;9.70;;
71806;SDS011;59655;42.590;23.364;2023-11-21T06:07:14;21.52;;;9.50;;
71806;SDS011;59655;42.590;23.364;2023-11-21T06:09:39;28.42;;;12.93;;
71806;SDS011;59655;42.590;23.364;2023-11-21T06:12:05;29.30;;;14.40;;
71806;SDS011;59655;42.590;23.364;2023-11-21T06:14:30;35.13;;;15.13;;
71806;SDS011;59655;42.590;23.364;2023-11-21T06:16:58;23.85;;;11.13;;
71806;SDS011;59655;42.590;23.364;2023-11-21T06:19:23;38.17;;;15.02;;
71806;SDS011;59655;42.590;23.364;2023-11-21T06:21:49;34.28;;;16.58;;
71806;SDS011;59655;42.590;23.364;2023-11-21T06:24:14;46.70;;;22.52;;
71806;SDS011;59655;42.590;23.364;2023-11-21T06:26:40;40.35;;;20.98;;
71806;SDS011;59655;42.590;23.364;2023-11-21T06:29:06;47.28;;;22.02;;
71806;SDS011;59655;42.590;23.364;2023-11-21T06:31:32;48.00;;;21.00;;
71806;SDS011;59655;42.590;23.364;2023-11-21T06:33:58;37.83;;;18.70;;
71806;SDS011;59655;42.590;23.364;2023-11-21T06:36:24;63.60;;;34.13;;
71806;SDS011;59655;42.590;23.364;2023-11-21T06:38:51;42.65;;;19.40;;
71806;SDS011;59655;42.590;23.364;2023-11-21T06:41:16;29.27;;;13.90;;
71806;SDS011;59655;42.590;23.364;2023-11-21T06:43:42;38.97;;;16.08;;
71806;SDS011;59655;42.590;23.364;2023-11-21T06:46:11;36.63;;;15.57;;
71806;SDS011;59655;42.590;23.364;2023-11-21T06:48:39;35.13;;;16.58;;
71806;SDS011;59655;42.590;23.364;2023-11-21T06:51:06;34.90;;;14.52;;
71806;SDS011;59655;42.590;23.364;2023-11-21T06:53:31;31.35;;;15.30;;
71806;SDS011;59655;42.590;23.364;2023-11-21T06:55:56;32.97;;;15.65;;
71806;SDS011;59655;42.590;23.364;2023-11-21T06:58:22;30.08;;;13.98;;
71806;SDS011;59655;42.590;23.364;2023-11-21T07:00:47;26.08;;;11.68;;
71806;SDS011;59655;42.590;23.364;2023-11-21T07:03:15;25.75;;;12.50;;
71806;SDS011;59655;42.590;23.364;2023-11-21T07:05:40;23.52;;;11.63;;
71806;SDS011;59655;42.590;23.364;2023-11-21T07:08:06;15.38;;;8.35;;
71806;SDS011;59655;42.590;23.364;2023-11-21T07:10:32;17.17;;;8.50;;
71806;SDS011;59655;42.590;23.364;2023-11-21T07:12:58;21.25;;;8.70;;
71806;SDS011;59655;42.590;23.364;2023-11-21T07:15:23;11.32;;;6.65;;
71806;SDS011;59655;42.590;23.364;2023-11-21T07:17:50;12.98;;;6.25;;
71806;SDS011;59655;42.590;23.364;2023-11-21T07:20:16;13.40;;;7.10;;
71806;SDS011;59655;42.590;23.364;2023-11-21T07:22:42;12.73;;;5.93;;
71806;SDS011;59655;42.590;23.364;2023-11-21T07:25:07;13.65;;;6.28;;
71806;SDS011;59655;42.590;23.364;2023-11-21T07:27:34;18.10;;;8.93;;
71806;SDS011;59655;42.590;23.364;2023-11-21T07:30:01;19.42;;;7.85;;
71806;SDS011;59655;42.590;23.364;2023-11-21T07:32:30;12.02;;;6.78;;
71806;SDS011;59655;42.590;23.364;2023-11-21T07:34:56;13.45;;;7.30;;
71806;SDS011;59655;42.590;23.364;2023-11-21T07:37:23;13.23;;;6.43;;
71806;SDS011;59655;42.590;23.364;2023-11-21T07:39:48;14.20;;;6.78;;
71806;SDS011;59655;42.590;23.364;2023-11-21T07:42:14;12.35;;;6.47;;
71806;SDS011;59655;42.590;23.364;2023-11-21T07:44:40;11.65;;;6.80;;
71806;SDS011;59655;42.590;23.364;2023-11-21T07:47:06;10.80;;;6.88;;
71806;SDS011;59655;42.590;23.364;2023-11-21T07:49:31;13.65;;;5.85;;
71806;SDS011;59655;42.590;23.364;2023-11-21T07:51:57;10.48;;;5.00;;
71806;SDS011;59655;42.590;23.364;2023-11-21T07:54:22;48.00;;;20.55;;
71806;SDS011;59655;42.590;23.364;2023-11-21T07:56:48;58.40;;;23.50;;
71806;SDS011;59655;42.590;23.364;2023-11-21T07:59:15;42.03;;;17.08;;
71806;SDS011;59655;42.590;23.364;2023-11-21T08:01:42;13.25;;;5.78;;
71806;SDS011;59655;42.590;23.364;2023-11-21T08:04:08;9.88;;;5.25;;
71806;SDS011;59655;42.590;23.364;2023-11-21T08:06:33;7.40;;;4.78;;
71806;SDS011;59655;42.590;23.364;2023-11-21T08:08:59;10.40;;;5.25;;
71806;SDS011;59655;42.590;23.364;2023-11-21T08:11:24;11.00;;;5.68;;
71806;SDS011;59655;42.590;23.364;2023-11-21T08:13:51;24.90;;;21.30;;
71806;SDS011;59655;42.590;23.364;2023-11-21T08:16:16;18.90;;;13.55;;
71806;SDS011;59655;42.590;23.364;2023-11-21T08:18:42;11.40;;;7.10;;
71806;SDS011;59655;42.590;23.364;2023-11-21T08:21:07;10.77;;;5.50;;
71806;SDS011;59655;42.590;23.364;2023-11-21T08:23:33;7.55;;;4.10;;
71806;SDS011;59655;42.590;23.364;2023-11-21T08:25:59;7.68;;;3.45;;
71806;SDS011;59655;42.590;23.364;2023-11-21T08:28:24;8.32;;;4.10;;
71806;SDS011;59655;42.590;23.364;2023-11-21T08:30:51;6.80;;;3.60;;
71806;SDS011;59655;42.590;23.364;2023-11-21T08:33:18;7.72;;;3.75;;
71806;SDS011;59655;42.590;23.364;2023-11-21T08:35:43;6.63;;;3.42;;
71806;SDS011;59655;42.590;23.364;2023-11-21T08:38:09;4.53;;;2.33;;
71806;SDS011;59655;42.590;23.364;2023-11-21T08:40:38;6.70;;;2.53;;
71806;SDS011;59655;42.590;23.364;2023-11-21T08:43:03;7.93;;;2.20;;
71806;SDS011;59655;42.590;23.364;2023-11-21T08:45:33;8.20;;;3.13;;
71806;SDS011;59655;42.590;23.364;2023-11-21T08:47:59;5.55;;;3.30;;
71806;SDS011;59655;42.590;23.364;2023-11-21T08:50:25;8.73;;;3.97;;
71806;SDS011;59655;42.590;23.364;2023-11-21T08:52:50;8.20;;;4.25;;
71806;SDS011;59655;42.590;23.364;2023-11-21T08:55:16;23.90;;;16.55;;
71806;SDS011;59655;42.590;23.364;2023-11-21T08:57:44;15.10;;;7.30;;
71806;SDS011;59655;42.590;23.364;2023-11-21T09:00:11;6.55;;;4.18;;
71806;SDS011;59655;42.590;23.364;2023-11-21T09:02:38;9.90;;;4.45;;
71806;SDS011;59655;42.590;23.364;2023-11-21T09:05:07;9.48;;;5.00;;
71806;SDS011;59655;42.590;23.364;2023-11-21T09:07:34;7.32;;;4.28;;
71806;SDS011;59655;42.590;23.364;2023-11-21T09:10:00;9.35;;;5.18;;
71806;SDS011;59655;42.590;23.364;2023-11-21T09:12:26;14.82;;;5.88;;
71806;SDS011;59655;42.590;23.364;2023-11-21T09:14:51;12.20;;;6.63;;
71806;SDS011;59655;42.590;23.364;2023-11-21T09:17:16;11.10;;;6.00;;
71806;SDS011;59655;42.590;23.364;2023-11-21T09:19:42;14.63;;;8.68;;
71806;SDS011;59655;42.590;23.364;2023-11-21T09:22:15;18.23;;;14.45;;
71806;SDS011;59655;42.590;23.364;2023-11-21T09:24:41;19.02;;;12.88;;
71806;SDS011;59655;42.590;23.364;2023-11-21T09:27:07;13.65;;;7.55;;
71806;SDS011;59655;42.590;23.364;2023-11-21T09:29:33;13.95;;;7.10;;
71806;SDS011;59655;42.590;23.364;2023-11-21T09:31:58;15.18;;;7.13;;
71806;SDS011;59655;42.590;23.364;2023-11-21T09:34:27;15.90;;;7.65;;
71806;SDS011;59655;42.590;23.364;2023-11-21T09:36:53;13.85;;;7.35;;
71806;SDS011;59655;42.590;23.364;2023-11-21T09:39:19;15.48;;;8.55;;
71806;SDS011;59655;42.590;23.364;2023-11-21T09:41:46;14.05;;;8.02;;
71806;SDS011;59655;42.590;23.364;2023-11-21T09:58:54;14.48;;;6.97;;
71806;SDS011;59655;42.590;23.364;2023-11-21T10:01:22;17.95;;;9.82;;
71806;SDS011;59655;42.590;23.364;2023-11-21T10:03:48;20.75;;;10.10;;
71806;SDS011;59655;42.590;23.364;2023-11-21T10:06:14;21.90;;;10.52;;
71806;SDS011;59655;42.590;23.364;2023-11-21T10:08:42;26.25;;;10.93;;
71806;SDS011;59655;42.590;23.364;2023-11-21T10:11:08;21.48;;;9.52;;
71806;SDS011;59655;42.590;23.364;2023-11-21T10:13:36;20.42;;;10.18;;
71806;SDS011;59655;42.590;23.364;2023-11-21T10:16:02;13.30;;;7.90;;
71806;SDS011;59655;42.590;23.364;2023-11-21T10:18:30;15.00;;;6.07;;
71806;SDS011;59655;42.590;23.364;2023-11-21T10:20:59;18.90;;;9.07;;
71806;SDS011;59655;42.590;23.364;2023-11-21T10:23:25;14.95;;;6.55;;
71806;SDS011;59655;42.590;23.364;2023-11-21T10:25:51;13.35;;;6.60;;
71806;SDS011;59655;42.590;23.364;2023-11-21T10:28:18;11.05;;;5.88;;
71806;SDS011;59655;42.590;23.364;2023-11-21T10:30:44;11.57;;;5.63;;
71806;SDS011;59655;42.590;23.364;2023-11-21T10:33:09;12.63;;;6.60;;
71806;SDS011;59655;42.590;23.364;2023-11-21T10:35:45;15.88;;;7.07;;
71806;SDS011;59655;42.590;23.364;2023-11-21T10:38:12;15.57;;;7.60;;
71806;SDS011;59655;42.590;23.364;2023-11-21T10:40:39;16.55;;;8.38;;
71806;SDS011;59655;42.590;23.364;2023-11-21T10:43:06;16.08;;;7.93;;
71806;SDS011;59655;42.590;23.364;2023-11-21T10:45:34;13.60;;;7.10;;
71806;SDS011;59655;42.590;23.364;2023-11-21T10:47:59;14.52;;;7.22;;
71806;SDS011;59655;42.590;23.364;2023-11-21T10:50:25;17.35;;;8.45;;
71806;SDS011;59655;42.590;23.364;2023-11-21T10:52:51;18.33;;;9.13;;
71806;SDS011;59655;42.590;23.364;2023-11-21T10:55:17;15.20;;;7.53;;
71806;SDS011;59655;42.590;23.364;2023-11-21T10:57:46;17.30;;;7.72;;
71806;SDS011;59655;42.590;23.364;2023-11-21T11:00:14;20.08;;;8.73;;
71806;SDS011;59655;42.590;23.364;2023-11-21T11:02:41;16.52;;;8.00;;
71806;SDS011;59655;42.590;23.364;2023-11-21T11:05:08;16.00;;;7.45;;
71806;SDS011;59655;42.590;23.364;2023-11-21T11:12:29;16.17;;;8.75;;
71806;SDS011;59655;42.590;23.364;2023-11-21T11:14:54;20.40;;;9.85;;
71806;SDS011;59655;42.590;23.364;2023-11-21T11:17:21;14.80;;;6.55;;
71806;SDS011;59655;42.590;23.364;2023-11-21T11:19:47;14.07;;;6.85;;
71806;SDS011;59655;42.590;23.364;2023-11-21T11:33:04;17.48;;;8.88;;
71806;SDS011;59655;42.590;23.364;2023-11-21T11:36:02;21.20;;;9.85;;
71806;SDS011;59655;42.590;23.364;2023-11-21T11:38:33;24.25;;;9.57;;
71806;SDS011;59655;42.590;23.364;2023-11-21T11:41:01;18.42;;;9.15;;
71806;SDS011;59655;42.590;23.364;2023-11-21T11:43:29;25.00;;;9.80;;
71806;SDS011;59655;42.590;23.364;2023-11-21T11:45:56;20.95;;;10.10;;
71806;SDS011;59655;42.590;23.364;2023-11-21T11:48:23;16.58;;;8.98;;
71806;SDS011;59655;42.590;23.364;2023-11-21T11:51:05;18.42;;;9.32;;
71806;SDS011;59655;42.590;23.364;2023-11-21T11:53:37;22.40;;;9.45;;
71806;SDS011;59655;42.590;23.364;2023-11-21T11:58:54;20.23;;;8.93;;
71806;SDS011;59655;42.590;23.364;2023-11-21T12:01:21;20.67;;;9.00;;
71806;SDS011;59655;42.590;23.364;2023-11-21T12:07:04;27.02;;;10.18;;
71806;SDS011;59655;42.590;23.364;2023-11-21T12:09:31;23.33;;;9.85;;
71806;SDS011;59655;42.590;23.364;2023-11-21T12:11:57;24.25;;;10.98;;
71806;SDS011;59655;42.590;23.364;2023-11-21T12:14:23;24.42;;;11.13;;
71806;SDS011;59655;42.590;23.364;2023-11-21T12:16:49;25.00;;;9.90;;
71806;SDS011;59655;42.590;23.364;2023-11-21T12:19:16;22.48;;;10.40;;
71806;SDS011;59655;42.590;23.364;2023-11-21T12:21:42;19.35;;;10.60;;
71806;SDS011;59655;42.590;23.364;2023-11-21T12:24:09;30.05;;;10.80;;
71806;SDS011;59655;42.590;23.364;2023-11-21T12:26:35;19.85;;;8.43;;
71806;SDS011;59655;42.590;23.364;2023-11-21T12:29:01;17.17;;;6.93;;
71806;SDS011;59655;42.590;23.364;2023-11-21T12:31:29;12.23;;;6.70;;
71806;SDS011;59655;42.590;23.364;2023-11-21T12:33:55;18.52;;;8.93;;
71806;SDS011;59655;42.590;23.364;2023-11-21T12:36:21;16.95;;;8.55;;
71806;SDS011;59655;42.590;23.364;2023-11-21T12:38:47;23.27;;;9.52;;
71806;SDS011;59655;42.590;23.364;2023-11-21T12:41:12;16.77;;;8.27;;
71806;SDS011;59655;42.590;23.364;2023-11-21T12:43:38;24.35;;;9.57;;
71806;SDS011;59655;42.590;23.364;2023-11-21T12:46:07;27.98;;;11.45;;
71806;SDS011;59655;42.590;23.364;2023-11-21T12:48:39;24.20;;;11.65;;
71806;SDS011;59655;42.590;23.364;2023-11-21T12:51:09;26.15;;;13.32;;
71806;SDS011;59655;42.590;23.364;2023-11-21T12:53:37;26.48;;;13.55;;
71806;SDS011;59655;42.590;23.364;2023-11-21T12:56:06;31.38;;;14.45;;
71806;SDS011;59655;42.590;23.364;2023-11-21T12:58:34;30.38;;;15.75;;
71806;SDS011;59655;42.590;23.364;2023-11-21T13:01:07;26.23;;;14.75;;
71806;SDS011;59655;42.590;23.364;2023-11-21T13:03:39;27.52;;;13.85;;
71806;SDS011;59655;42.590;23.364;2023-11-21T13:06:05;31.45;;;14.02;;
71806;SDS011;59655;42.590;23.364;2023-11-21T13:08:32;30.63;;;14.50;;
71806;SDS011;59655;42.590;23.364;2023-11-21T13:10:58;27.15;;;14.25;;
71806;SDS011;59655;42.590;23.364;2023-11-21T13:13:24;25.67;;;11.88;;
71806;SDS011;59655;42.590;23.364;2023-11-21T13:18:16;27.52;;;14.27;;
71806;SDS011;59655;42.590;23.364;2023-11-21T13:20:42;30.70;;;14.23;;
71806;SDS011;59655;42.590;23.364;2023-11-21T13:23:08;31.90;;;14.63;;
71806;SDS011;59655;42.590;23.364;2023-11-21T13:25:36;28.23;;;13.88;;
71806;SDS011;59655;42.590;23.364;2023-11-21T13:28:08;27.25;;;14.35;;
71806;SDS011;59655;42.590;23.364;2023-11-21T13:30:36;29.00;;;14.57;;
71806;SDS011;59655;42.590;23.364;2023-11-21T13:33:02;30.17;;;15.73;;
71806;SDS011;59655;42.590;23.364;2023-11-21T13:35:31;28.17;;;14.88;;
71806;SDS011;59655;42.590;23.364;2023-11-21T13:38:03;29.75;;;16.45;;
71806;SDS011;59655;42.590;23.364;2023-11-21T13:40:31;33.42;;;16.10;;
71806;SDS011;59655;42.590;23.364;2023-11-21T13:42:59;30.63;;;16.88;;
71806;SDS011;59655;42.590;23.364;2023-11-21T13:45:29;32.10;;;15.52;;
71806;SDS011;59655;42.590;23.364;2023-11-21T13:47:54;29.58;;;14.43;;
71806;SDS011;59655;42.590;23.364;2023-11-21T13:50:26;25.83;;;14.10;;
71806;SDS011;59655;42.590;23.364;2023-11-21T13:52:58;30.15;;;16.25;;
71806;SDS011;59655;42.590;23.364;2023-11-21T13:55:28;33.17;;;15.32;;
71806;SDS011;59655;42.590;23.364;2023-11-21T13:57:53;29.83;;;15.70;;
71806;SDS011;59655;42.590;23.364;2023-11-21T14:00:19;26.15;;;14.55;;
71806;SDS011;59655;42.590;23.364;2023-11-21T14:03:02;81.63;;;56.40;;
71806;SDS011;59655;42.590;23.364;2023-11-21T14:05:33;76.57;;;52.38;;
71806;SDS011;59655;42.590;23.364;2023-11-21T14:07:59;45.55;;;26.38;;
71806;SDS011;59655;42.590;23.364;2023-11-21T14:10:30;39.80;;;24.63;;
71806;SDS011;59655;42.590;23.364;2023-11-21T14:13:08;38.55;;;20.98;;
71806;SDS011;59655;42.590;23.364;2023-11-21T14:15:38;45.78;;;20.35;;
71806;SDS011;59655;42.590;23.364;2023-11-21T14:18:08;46.47;;;20.25;;
71806;SDS011;59655;42.590;23.364;2023-11-21T14:20:39;46.70;;;20.58;;
71806;SDS011;59655;42.590;23.364;2023-11-21T14:23:06;61.75;;;24.70;;
71806;SDS011;59655;42.590;23.364;2023-11-21T14:25:34;58.28;;;23.05;;
71806;SDS011;59655;42.590;23.364;2023-11-21T14:28:02;95.38;;;36.75;;
71806;SDS011;59655;42.590;23.364;2023-11-21T14:30:28;60.28;;;27.58;;
71806;SDS011;59655;42.590;23.364;2023-11-21T14:32:57;60.03;;;27.00;;
71806;SDS011;59655;42.590;23.364;2023-11-21T14:35:23;51.25;;;23.90;;
71806;SDS011;59655;42.590;23.364;2023-11-21T14:37:48;46.55;;;22.13;;
71806;SDS011;59655;42.590;23.364;2023-11-21T14:40:14;47.72;;;22.17;;
71806;SDS011;59655;42.590;23.364;2023-11-21T14:42:41;39.40;;;23.38;;
71806;SDS011;59655;42.590;23.364;2023-11-21T14:45:08;42.65;;;22.88;;
71806;SDS011;59655;42.590;23.364;2023-11-21T14:47:37;64.13;;;37.25;;
71806;SDS011;59655;42.590;23.364;2023-11-21T14:50:03;60.20;;;34.83;;
71806;SDS011;59655;42.590;23.364;2023-11-21T14:52:49;57.13;;;27.13;;
71806;SDS011;59655;42.590;23.364;2023-11-21T14:55:24;39.33;;;18.80;;
71806;SDS011;59655;42.590;23.364;2023-11-21T14:58:08;37.78;;;17.73;;